sensor_id;sensor_type;location;lat;lon;timestamp;P1;durP1;ratioP1;P2;durP2;ratioP2
70467;SDS011;57934;51.532;7.684;2022-10-31T00:02:25;15.15;;;6.20;;
70467;SDS011;57934;51.532;7.684;2022-10-31T00:04:51;20.52;;;7.07;;
70467;SDS011;57934;51.532;7.684;2022-10-31T00:07:17;12.40;;;5.90;;
70467;SDS011;57934;51.532;7.684;2022-10-31T00:09:43;12.85;;;6.13;;
70467;SDS011;57934;51.532;7.684;2022-10-31T00:12:09;15.77;;;6.43;;
70467;SDS011;57934;51.532;7.684;2022-10-31T00:14:35;13.43;;;5.40;;
70467;SDS011;57934;51.532;7.684;2022-10-31T00:17:01;9.98;;;5.65;;
70467;SDS011;57934;51.532;7.684;2022-10-31T00:19:28;9.95;;;6.40;;
70467;SDS011;57934;51.532;7.684;2022-10-31T00:21:54;15.80;;;6.65;;
70467;SDS011;57934;51.532;7.684;2022-10-31T00:24:20;12.85;;;6.78;;
70467;SDS011;57934;51.532;7.684;2022-10-31T00:26:46;14.25;;;6.53;;
70467;SDS011;57934;51.532;7.684;2022-10-31T00:29:12;16.88;;;6.82;;
70467;SDS011;57934;51.532;7.684;2022-10-31T00:31:38;14.63;;;7.15;;
70467;SDS011;57934;51.532;7.684;2022-10-31T00:34:04;9.65;;;6.13;;
70467;SDS011;57934;51.532;7.684;2022-10-31T00:36:30;12.93;;;6.88;;
70467;SDS011;57934;51.532;7.684;2022-10-31T00:38:57;15.05;;;7.28;;
70467;SDS011;57934;51.532;7.684;2022-10-31T00:41:24;14.05;;;8.05;;
70467;SDS011;57934;51.532;7.684;2022-10-31T00:43:50;19.80;;;8.00;;
70467;SDS011;57934;51.532;7.684;2022-10-31T00:46:17;14.18;;;7.40;;
70467;SDS011;57934;51.532;7.684;2022-10-31T00:48:43;14.73;;;6.82;;
70467;SDS011;57934;51.532;7.684;2022-10-31T00:51:09;13.95;;;7.72;;
70467;SDS011;57934;51.532;7.684;2022-10-31T00:53:35;17.45;;;7.88;;
70467;SDS011;57934;51.532;7.684;2022-10-31T00:56:02;18.92;;;8.02;;
70467;SDS011;57934;51.532;7.684;2022-10-31T00:58:29;16.95;;;8.77;;
70467;SDS011;57934;51.532;7.684;2022-10-31T01:00:55;18.10;;;8.30;;
70467;SDS011;57934;51.532;7.684;2022-10-31T01:03:29;20.58;;;8.13;;
70467;SDS011;57934;51.532;7.684;2022-10-31T01:08:23;16.40;;;7.70;;
70467;SDS011;57934;51.532;7.684;2022-10-31T01:11:00;19.42;;;7.13;;
70467;SDS011;57934;51.532;7.684;2022-10-31T01:13:28;18.30;;;7.25;;
70467;SDS011;57934;51.532;7.684;2022-10-31T01:15:56;11.45;;;6.80;;
70467;SDS011;57934;51.532;7.684;2022-10-31T01:18:24;15.57;;;7.07;;
70467;SDS011;57934;51.532;7.684;2022-10-31T01:20:58;16.88;;;7.03;;
70467;SDS011;57934;51.532;7.684;2022-10-31T01:23:28;17.77;;;6.95;;
70467;SDS011;57934;51.532;7.684;2022-10-31T01:26:08;21.67;;;6.97;;
70467;SDS011;57934;51.532;7.684;2022-10-31T01:28:40;11.85;;;6.82;;
70467;SDS011;57934;51.532;7.684;2022-10-31T01:31:10;13.30;;;6.20;;
70467;SDS011;57934;51.532;7.684;2022-10-31T01:33:36;12.02;;;6.90;;
70467;SDS011;57934;51.532;7.684;2022-10-31T01:36:12;14.35;;;7.30;;
70467;SDS011;57934;51.532;7.684;2022-10-31T01:38:41;9.98;;;6.32;;
70467;SDS011;57934;51.532;7.684;2022-10-31T01:41:08;14.38;;;6.50;;
70467;SDS011;57934;51.532;7.684;2022-10-31T01:48:49;12.10;;;7.30;;
70467;SDS011;57934;51.532;7.684;2022-10-31T01:51:18;16.17;;;6.53;;
70467;SDS011;57934;51.532;7.684;2022-10-31T01:53:49;16.55;;;7.20;;
70467;SDS011;57934;51.532;7.684;2022-10-31T01:56:17;20.45;;;6.85;;
70467;SDS011;57934;51.532;7.684;2022-10-31T01:58:44;15.75;;;7.43;;
70467;SDS011;57934;51.532;7.684;2022-10-31T02:01:12;12.98;;;7.07;;
70467;SDS011;57934;51.532;7.684;2022-10-31T02:03:40;16.33;;;7.03;;
70467;SDS011;57934;51.532;7.684;2022-10-31T02:06:07;19.88;;;7.75;;
70467;SDS011;57934;51.532;7.684;2022-10-31T02:08:41;15.55;;;8.18;;
70467;SDS011;57934;51.532;7.684;2022-10-31T02:11:09;17.67;;;8.85;;
70467;SDS011;57934;51.532;7.684;2022-10-31T02:13:36;18.50;;;8.88;;
70467;SDS011;57934;51.532;7.684;2022-10-31T02:16:05;25.92;;;8.60;;
70467;SDS011;57934;51.532;7.684;2022-10-31T02:18:33;17.33;;;8.93;;
70467;SDS011;57934;51.532;7.684;2022-10-31T02:26:08;15.15;;;8.68;;
70467;SDS011;57934;51.532;7.684;2022-10-31T02:28:51;13.90;;;7.30;;
70467;SDS011;57934;51.532;7.684;2022-10-31T02:31:42;14.25;;;7.82;;
70467;SDS011;57934;51.532;7.684;2022-10-31T02:34:20;15.23;;;7.75;;
70467;SDS011;57934;51.532;7.684;2022-10-31T02:36:58;17.45;;;8.27;;
70467;SDS011;57934;51.532;7.684;2022-10-31T02:39:35;17.25;;;7.63;;
70467;SDS011;57934;51.532;7.684;2022-10-31T02:44:49;14.02;;;7.32;;
70467;SDS011;57934;51.532;7.684;2022-10-31T02:47:22;20.70;;;7.47;;
70467;SDS011;57934;51.532;7.684;2022-10-31T02:49:56;12.52;;;8.50;;
70467;SDS011;57934;51.532;7.684;2022-10-31T02:52:25;14.43;;;8.30;;
70467;SDS011;57934;51.532;7.684;2022-10-31T02:54:55;14.38;;;7.80;;
70467;SDS011;57934;51.532;7.684;2022-10-31T02:57:31;15.73;;;7.90;;
70467;SDS011;57934;51.532;7.684;2022-10-31T03:00:01;14.85;;;8.60;;
70467;SDS011;57934;51.532;7.684;2022-10-31T03:10:41;16.95;;;7.78;;
70467;SDS011;57934;51.532;7.684;2022-10-31T03:18:55;18.73;;;8.30;;
70467;SDS011;57934;51.532;7.684;2022-10-31T03:21:33;15.73;;;7.38;;
70467;SDS011;57934;51.532;7.684;2022-10-31T03:24:02;17.02;;;8.07;;
70467;SDS011;57934;51.532;7.684;2022-10-31T03:26:32;15.60;;;8.30;;
70467;SDS011;57934;51.532;7.684;2022-10-31T03:29:04;16.67;;;8.30;;
70467;SDS011;57934;51.532;7.684;2022-10-31T03:31:35;16.98;;;8.30;;
70467;SDS011;57934;51.532;7.684;2022-10-31T03:34:05;16.33;;;8.30;;
70467;SDS011;57934;51.532;7.684;2022-10-31T03:36:33;13.15;;;7.93;;
70467;SDS011;57934;51.532;7.684;2022-10-31T03:39:05;22.00;;;8.27;;
70467;SDS011;57934;51.532;7.684;2022-10-31T03:41:35;17.90;;;8.45;;
70467;SDS011;57934;51.532;7.684;2022-10-31T03:44:09;14.88;;;7.50;;
70467;SDS011;57934;51.532;7.684;2022-10-31T03:46:40;20.00;;;8.23;;
70467;SDS011;57934;51.532;7.684;2022-10-31T03:49:09;13.82;;;8.40;;
70467;SDS011;57934;51.532;7.684;2022-10-31T03:54:16;23.52;;;9.98;;
70467;SDS011;57934;51.532;7.684;2022-10-31T03:59:17;19.17;;;8.50;;
70467;SDS011;57934;51.532;7.684;2022-10-31T04:01:50;18.27;;;8.60;;
70467;SDS011;57934;51.532;7.684;2022-10-31T04:04:20;19.02;;;8.32;;
70467;SDS011;57934;51.532;7.684;2022-10-31T04:06:48;17.15;;;9.73;;
70467;SDS011;57934;51.532;7.684;2022-10-31T04:09:17;23.30;;;9.40;;
70467;SDS011;57934;51.532;7.684;2022-10-31T04:11:46;18.85;;;8.80;;
70467;SDS011;57934;51.532;7.684;2022-10-31T04:14:35;16.23;;;8.23;;
70467;SDS011;57934;51.532;7.684;2022-10-31T04:17:07;13.07;;;8.57;;
70467;SDS011;57934;51.532;7.684;2022-10-31T04:19:39;21.77;;;9.20;;
70467;SDS011;57934;51.532;7.684;2022-10-31T04:22:05;18.35;;;9.50;;
70467;SDS011;57934;51.532;7.684;2022-10-31T04:24:31;17.15;;;9.65;;
70467;SDS011;57934;51.532;7.684;2022-10-31T04:26:58;17.45;;;9.20;;
70467;SDS011;57934;51.532;7.684;2022-10-31T04:29:24;15.80;;;8.68;;
70467;SDS011;57934;51.532;7.684;2022-10-31T04:31:50;16.10;;;9.52;;
70467;SDS011;57934;51.532;7.684;2022-10-31T04:34:16;17.50;;;9.80;;
70467;SDS011;57934;51.532;7.684;2022-10-31T04:36:42;16.20;;;9.13;;
70467;SDS011;57934;51.532;7.684;2022-10-31T04:39:09;15.80;;;9.27;;
70467;SDS011;57934;51.532;7.684;2022-10-31T04:41:42;21.67;;;10.48;;
70467;SDS011;57934;51.532;7.684;2022-10-31T04:44:13;20.45;;;10.02;;
70467;SDS011;57934;51.532;7.684;2022-10-31T04:46:39;16.73;;;9.35;;
70467;SDS011;57934;51.532;7.684;2022-10-31T04:49:06;19.73;;;9.60;;
70467;SDS011;57934;51.532;7.684;2022-10-31T04:51:34;15.77;;;9.13;;
70467;SDS011;57934;51.532;7.684;2022-10-31T04:54:00;19.95;;;9.90;;
70467;SDS011;57934;51.532;7.684;2022-10-31T04:56:26;18.20;;;9.85;;
70467;SDS011;57934;51.532;7.684;2022-10-31T04:58:57;15.27;;;9.13;;
70467;SDS011;57934;51.532;7.684;2022-10-31T05:01:25;19.83;;;9.23;;
70467;SDS011;57934;51.532;7.684;2022-10-31T05:03:51;19.70;;;10.05;;
70467;SDS011;57934;51.532;7.684;2022-10-31T05:06:17;19.83;;;9.48;;
70467;SDS011;57934;51.532;7.684;2022-10-31T05:08:43;14.50;;;9.18;;
70467;SDS011;57934;51.532;7.684;2022-10-31T05:11:10;18.23;;;9.82;;
70467;SDS011;57934;51.532;7.684;2022-10-31T05:13:37;19.85;;;10.00;;
70467;SDS011;57934;51.532;7.684;2022-10-31T05:16:06;19.13;;;11.27;;
70467;SDS011;57934;51.532;7.684;2022-10-31T05:18:50;21.92;;;12.00;;
70467;SDS011;57934;51.532;7.684;2022-10-31T05:21:35;20.65;;;11.48;;
70467;SDS011;57934;51.532;7.684;2022-10-31T05:24:02;21.33;;;12.35;;
70467;SDS011;57934;51.532;7.684;2022-10-31T05:26:29;24.17;;;11.95;;
70467;SDS011;57934;51.532;7.684;2022-10-31T05:28:55;24.35;;;11.50;;
70467;SDS011;57934;51.532;7.684;2022-10-31T05:31:22;22.15;;;10.85;;
70467;SDS011;57934;51.532;7.684;2022-10-31T05:33:49;22.75;;;12.18;;
70467;SDS011;57934;51.532;7.684;2022-10-31T05:36:42;23.67;;;12.88;;
70467;SDS011;57934;51.532;7.684;2022-10-31T05:39:15;25.38;;;13.50;;
70467;SDS011;57934;51.532;7.684;2022-10-31T05:41:55;32.20;;;12.95;;
70467;SDS011;57934;51.532;7.684;2022-10-31T05:44:25;21.48;;;13.07;;
70467;SDS011;57934;51.532;7.684;2022-10-31T05:47:17;28.60;;;13.73;;
70467;SDS011;57934;51.532;7.684;2022-10-31T05:50:09;24.63;;;13.43;;
70467;SDS011;57934;51.532;7.684;2022-10-31T05:52:55;23.42;;;13.63;;
70467;SDS011;57934;51.532;7.684;2022-10-31T05:55:31;29.58;;;15.48;;
70467;SDS011;57934;51.532;7.684;2022-10-31T05:58:18;32.08;;;15.18;;
70467;SDS011;57934;51.532;7.684;2022-10-31T06:00:52;24.92;;;15.98;;
70467;SDS011;57934;51.532;7.684;2022-10-31T06:03:19;29.63;;;16.13;;
70467;SDS011;57934;51.532;7.684;2022-10-31T06:05:54;31.25;;;16.08;;
70467;SDS011;57934;51.532;7.684;2022-10-31T06:08:23;35.60;;;15.38;;
70467;SDS011;57934;51.532;7.684;2022-10-31T06:10:49;31.02;;;15.15;;
70467;SDS011;57934;51.532;7.684;2022-10-31T06:13:24;24.83;;;13.90;;
70467;SDS011;57934;51.532;7.684;2022-10-31T06:15:58;26.27;;;14.00;;
70467;SDS011;57934;51.532;7.684;2022-10-31T06:18:30;24.90;;;14.75;;
70467;SDS011;57934;51.532;7.684;2022-10-31T06:20:56;30.33;;;14.73;;
70467;SDS011;57934;51.532;7.684;2022-10-31T06:23:22;33.17;;;15.48;;
70467;SDS011;57934;51.532;7.684;2022-10-31T06:25:53;23.88;;;14.25;;
70467;SDS011;57934;51.532;7.684;2022-10-31T06:28:21;25.35;;;14.43;;
70467;SDS011;57934;51.532;7.684;2022-10-31T06:31:08;38.13;;;15.50;;
70467;SDS011;57934;51.532;7.684;2022-10-31T06:33:35;22.95;;;12.82;;
70467;SDS011;57934;51.532;7.684;2022-10-31T06:36:01;26.50;;;14.05;;
70467;SDS011;57934;51.532;7.684;2022-10-31T06:38:28;34.30;;;13.70;;
70467;SDS011;57934;51.532;7.684;2022-10-31T06:40:54;27.73;;;14.18;;
70467;SDS011;57934;51.532;7.684;2022-10-31T06:43:22;27.65;;;14.00;;
70467;SDS011;57934;51.532;7.684;2022-10-31T06:45:52;26.42;;;13.40;;
70467;SDS011;57934;51.532;7.684;2022-10-31T06:48:24;25.58;;;13.88;;
70467;SDS011;57934;51.532;7.684;2022-10-31T06:51:10;23.73;;;13.15;;
70467;SDS011;57934;51.532;7.684;2022-10-31T06:53:38;24.10;;;12.30;;
70467;SDS011;57934;51.532;7.684;2022-10-31T06:56:06;27.60;;;12.63;;
70467;SDS011;57934;51.532;7.684;2022-10-31T06:58:38;23.10;;;12.52;;
70467;SDS011;57934;51.532;7.684;2022-10-31T07:01:07;27.08;;;13.50;;
70467;SDS011;57934;51.532;7.684;2022-10-31T07:03:33;26.45;;;13.60;;
70467;SDS011;57934;51.532;7.684;2022-10-31T07:05:59;27.25;;;13.55;;
70467;SDS011;57934;51.532;7.684;2022-10-31T07:08:25;22.60;;;13.13;;
70467;SDS011;57934;51.532;7.684;2022-10-31T07:10:55;27.40;;;12.65;;
70467;SDS011;57934;51.532;7.684;2022-10-31T07:13:23;21.17;;;12.38;;
70467;SDS011;57934;51.532;7.684;2022-10-31T07:16:02;23.38;;;14.02;;
70467;SDS011;57934;51.532;7.684;2022-10-31T07:18:32;31.02;;;13.88;;
70467;SDS011;57934;51.532;7.684;2022-10-31T07:20:59;32.17;;;13.27;;
70467;SDS011;57934;51.532;7.684;2022-10-31T07:23:26;28.33;;;13.00;;
70467;SDS011;57934;51.532;7.684;2022-10-31T07:26:12;23.45;;;12.20;;
70467;SDS011;57934;51.532;7.684;2022-10-31T07:28:43;24.27;;;13.85;;
70467;SDS011;57934;51.532;7.684;2022-10-31T07:31:12;30.15;;;13.82;;
70467;SDS011;57934;51.532;7.684;2022-10-31T07:33:39;28.80;;;14.57;;
70467;SDS011;57934;51.532;7.684;2022-10-31T07:36:31;30.70;;;13.45;;
70467;SDS011;57934;51.532;7.684;2022-10-31T07:39:02;41.63;;;15.27;;
70467;SDS011;57934;51.532;7.684;2022-10-31T07:41:30;37.47;;;14.70;;
70467;SDS011;57934;51.532;7.684;2022-10-31T07:43:56;30.80;;;14.93;;
70467;SDS011;57934;51.532;7.684;2022-10-31T07:46:51;31.10;;;14.43;;
70467;SDS011;57934;51.532;7.684;2022-10-31T07:49:20;36.33;;;15.88;;
70467;SDS011;57934;51.532;7.684;2022-10-31T07:52:05;31.83;;;14.20;;
70467;SDS011;57934;51.532;7.684;2022-10-31T07:54:51;34.70;;;15.68;;
70467;SDS011;57934;51.532;7.684;2022-10-31T07:57:22;29.75;;;14.68;;
70467;SDS011;57934;51.532;7.684;2022-10-31T07:59:48;44.97;;;15.45;;
70467;SDS011;57934;51.532;7.684;2022-10-31T08:02:16;33.92;;;15.43;;
70467;SDS011;57934;51.532;7.684;2022-10-31T08:04:48;35.42;;;16.40;;
70467;SDS011;57934;51.532;7.684;2022-10-31T08:10:04;39.45;;;16.55;;
70467;SDS011;57934;51.532;7.684;2022-10-31T08:12:31;37.92;;;16.10;;
70467;SDS011;57934;51.532;7.684;2022-10-31T08:14:57;39.55;;;17.73;;
70467;SDS011;57934;51.532;7.684;2022-10-31T08:17:23;32.50;;;16.23;;
70467;SDS011;57934;51.532;7.684;2022-10-31T08:19:54;39.00;;;16.98;;
70467;SDS011;57934;51.532;7.684;2022-10-31T08:22:25;44.75;;;18.48;;
70467;SDS011;57934;51.532;7.684;2022-10-31T08:24:51;33.47;;;17.33;;
70467;SDS011;57934;51.532;7.684;2022-10-31T08:27:17;56.85;;;18.60;;
70467;SDS011;57934;51.532;7.684;2022-10-31T08:29:43;45.88;;;18.67;;
70467;SDS011;57934;51.532;7.684;2022-10-31T08:32:17;50.00;;;18.85;;
70467;SDS011;57934;51.532;7.684;2022-10-31T08:35:09;42.97;;;18.17;;
70467;SDS011;57934;51.532;7.684;2022-10-31T08:37:54;44.40;;;17.35;;
70467;SDS011;57934;51.532;7.684;2022-10-31T08:40:24;40.10;;;17.95;;
70467;SDS011;57934;51.532;7.684;2022-10-31T08:43:01;33.28;;;16.35;;
70467;SDS011;57934;51.532;7.684;2022-10-31T08:45:29;37.92;;;17.83;;
70467;SDS011;57934;51.532;7.684;2022-10-31T08:47:57;31.25;;;15.35;;
70467;SDS011;57934;51.532;7.684;2022-10-31T08:50:25;30.83;;;15.43;;
70467;SDS011;57934;51.532;7.684;2022-10-31T08:52:52;30.23;;;16.25;;
70467;SDS011;57934;51.532;7.684;2022-10-31T08:55:19;35.08;;;15.73;;
70467;SDS011;57934;51.532;7.684;2022-10-31T08:57:54;32.17;;;14.75;;
70467;SDS011;57934;51.532;7.684;2022-10-31T09:00:22;35.55;;;16.00;;
70467;SDS011;57934;51.532;7.684;2022-10-31T09:02:59;32.95;;;16.30;;
70467;SDS011;57934;51.532;7.684;2022-10-31T09:05:32;31.05;;;15.75;;
70467;SDS011;57934;51.532;7.684;2022-10-31T09:08:01;32.83;;;16.08;;
70467;SDS011;57934;51.532;7.684;2022-10-31T09:10:29;37.67;;;16.00;;
70467;SDS011;57934;51.532;7.684;2022-10-31T09:13:01;39.90;;;15.85;;
70467;SDS011;57934;51.532;7.684;2022-10-31T09:15:55;30.45;;;16.15;;
70467;SDS011;57934;51.532;7.684;2022-10-31T09:18:24;31.42;;;17.13;;
70467;SDS011;57934;51.532;7.684;2022-10-31T09:20:59;37.10;;;16.83;;
70467;SDS011;57934;51.532;7.684;2022-10-31T09:23:27;37.80;;;17.00;;
70467;SDS011;57934;51.532;7.684;2022-10-31T09:25:54;31.77;;;14.93;;
70467;SDS011;57934;51.532;7.684;2022-10-31T09:28:39;30.48;;;14.45;;
70467;SDS011;57934;51.532;7.684;2022-10-31T09:31:16;28.05;;;15.02;;
70467;SDS011;57934;51.532;7.684;2022-10-31T09:34:03;30.35;;;15.65;;
70467;SDS011;57934;51.532;7.684;2022-10-31T09:36:37;34.20;;;15.07;;
70467;SDS011;57934;51.532;7.684;2022-10-31T09:39:06;35.95;;;15.63;;
70467;SDS011;57934;51.532;7.684;2022-10-31T09:47:24;33.88;;;15.43;;
70467;SDS011;57934;51.532;7.684;2022-10-31T09:50:22;28.25;;;14.75;;
70467;SDS011;57934;51.532;7.684;2022-10-31T09:52:58;39.72;;;17.35;;
70467;SDS011;57934;51.532;7.684;2022-10-31T09:55:50;35.08;;;15.60;;
70467;SDS011;57934;51.532;7.684;2022-10-31T09:58:23;31.52;;;15.35;;
70467;SDS011;57934;51.532;7.684;2022-10-31T10:00:52;33.72;;;14.77;;
70467;SDS011;57934;51.532;7.684;2022-10-31T10:03:43;32.50;;;15.23;;
70467;SDS011;57934;51.532;7.684;2022-10-31T10:06:44;35.10;;;16.60;;
70467;SDS011;57934;51.532;7.684;2022-10-31T10:09:36;35.42;;;16.35;;
70467;SDS011;57934;51.532;7.684;2022-10-31T10:26:19;40.63;;;17.60;;
70467;SDS011;57934;51.532;7.684;2022-10-31T10:28:49;37.75;;;17.55;;
70467;SDS011;57934;51.532;7.684;2022-10-31T10:31:27;34.28;;;16.52;;
70467;SDS011;57934;51.532;7.684;2022-10-31T10:34:10;38.22;;;17.08;;
70467;SDS011;57934;51.532;7.684;2022-10-31T10:36:52;34.47;;;16.75;;
70467;SDS011;57934;51.532;7.684;2022-10-31T10:39:43;30.90;;;16.00;;
70467;SDS011;57934;51.532;7.684;2022-10-31T10:42:14;33.75;;;16.17;;
70467;SDS011;57934;51.532;7.684;2022-10-31T10:45:06;32.83;;;16.90;;
70467;SDS011;57934;51.532;7.684;2022-10-31T10:48:04;31.38;;;16.85;;
70467;SDS011;57934;51.532;7.684;2022-10-31T10:50:41;33.13;;;16.80;;
70467;SDS011;57934;51.532;7.684;2022-10-31T10:56:11;31.52;;;16.27;;
70467;SDS011;57934;51.532;7.684;2022-10-31T10:58:43;39.95;;;17.30;;
70467;SDS011;57934;51.532;7.684;2022-10-31T11:01:14;34.97;;;16.88;;
70467;SDS011;57934;51.532;7.684;2022-10-31T11:03:41;39.13;;;16.25;;
70467;SDS011;57934;51.532;7.684;2022-10-31T11:06:17;32.95;;;17.13;;
70467;SDS011;57934;51.532;7.684;2022-10-31T11:08:48;37.92;;;18.52;;
70467;SDS011;57934;51.532;7.684;2022-10-31T11:11:28;41.20;;;18.40;;
70467;SDS011;57934;51.532;7.684;2022-10-31T11:14:00;37.08;;;17.23;;
70467;SDS011;57934;51.532;7.684;2022-10-31T11:16:33;36.28;;;18.05;;
70467;SDS011;57934;51.532;7.684;2022-10-31T11:19:17;36.63;;;17.60;;
70467;SDS011;57934;51.532;7.684;2022-10-31T11:21:52;38.58;;;17.70;;
70467;SDS011;57934;51.532;7.684;2022-10-31T11:24:20;37.30;;;18.02;;
70467;SDS011;57934;51.532;7.684;2022-10-31T11:26:49;36.08;;;17.73;;
70467;SDS011;57934;51.532;7.684;2022-10-31T11:29:17;35.95;;;19.13;;
70467;SDS011;57934;51.532;7.684;2022-10-31T11:31:47;32.58;;;17.35;;
70467;SDS011;57934;51.532;7.684;2022-10-31T11:34:26;36.78;;;18.13;;
70467;SDS011;57934;51.532;7.684;2022-10-31T11:36:53;32.83;;;18.15;;
70467;SDS011;57934;51.532;7.684;2022-10-31T11:39:22;36.10;;;18.23;;
70467;SDS011;57934;51.532;7.684;2022-10-31T11:41:50;38.03;;;18.63;;
70467;SDS011;57934;51.532;7.684;2022-10-31T11:44:20;35.53;;;18.30;;
70467;SDS011;57934;51.532;7.684;2022-10-31T11:46:55;38.55;;;18.40;;
70467;SDS011;57934;51.532;7.684;2022-10-31T11:49:40;42.45;;;18.02;;
70467;SDS011;57934;51.532;7.684;2022-10-31T11:52:12;32.45;;;18.20;;
70467;SDS011;57934;51.532;7.684;2022-10-31T11:57:29;40.35;;;17.98;;
70467;SDS011;57934;51.532;7.684;2022-10-31T12:02:47;35.47;;;19.08;;
70467;SDS011;57934;51.532;7.684;2022-10-31T12:05:26;34.88;;;18.00;;
70467;SDS011;57934;51.532;7.684;2022-10-31T12:07:58;40.08;;;19.40;;
70467;SDS011;57934;51.532;7.684;2022-10-31T12:10:27;38.53;;;19.30;;
70467;SDS011;57934;51.532;7.684;2022-10-31T12:13:08;37.13;;;19.35;;
70467;SDS011;57934;51.532;7.684;2022-10-31T12:15:57;35.53;;;18.77;;
70467;SDS011;57934;51.532;7.684;2022-10-31T12:18:45;39.08;;;18.60;;
70467;SDS011;57934;51.532;7.684;2022-10-31T12:27:00;40.10;;;17.30;;
70467;SDS011;57934;51.532;7.684;2022-10-31T12:35:17;34.50;;;17.33;;
70467;SDS011;57934;51.532;7.684;2022-10-31T12:38:07;32.70;;;16.88;;
70467;SDS011;57934;51.532;7.684;2022-10-31T12:49:30;34.30;;;17.50;;
70467;SDS011;57934;51.532;7.684;2022-10-31T12:57:58;34.58;;;17.70;;
70467;SDS011;57934;51.532;7.684;2022-10-31T13:01:02;37.60;;;18.88;;
70467;SDS011;57934;51.532;7.684;2022-10-31T13:06:56;42.65;;;18.95;;
70467;SDS011;57934;51.532;7.684;2022-10-31T13:09:28;42.28;;;20.20;;
70467;SDS011;57934;51.532;7.684;2022-10-31T13:12:02;42.25;;;19.95;;
70467;SDS011;57934;51.532;7.684;2022-10-31T13:17:34;39.53;;;19.67;;
70467;SDS011;57934;51.532;7.684;2022-10-31T13:20:12;38.08;;;18.67;;
70467;SDS011;57934;51.532;7.684;2022-10-31T13:22:39;41.30;;;18.38;;
70467;SDS011;57934;51.532;7.684;2022-10-31T13:25:20;38.25;;;17.80;;
70467;SDS011;57934;51.532;7.684;2022-10-31T13:28:00;42.42;;;18.02;;
70467;SDS011;57934;51.532;7.684;2022-10-31T13:30:36;36.65;;;17.70;;
70467;SDS011;57934;51.532;7.684;2022-10-31T13:33:12;34.47;;;17.02;;
70467;SDS011;57934;51.532;7.684;2022-10-31T13:36:05;36.88;;;17.60;;
70467;SDS011;57934;51.532;7.684;2022-10-31T13:38:42;36.40;;;17.08;;
70467;SDS011;57934;51.532;7.684;2022-10-31T13:44:17;32.33;;;17.73;;
70467;SDS011;57934;51.532;7.684;2022-10-31T13:46:47;41.03;;;18.27;;
70467;SDS011;57934;51.532;7.684;2022-10-31T13:54:40;37.95;;;19.15;;
70467;SDS011;57934;51.532;7.684;2022-10-31T13:57:19;42.78;;;20.05;;
70467;SDS011;57934;51.532;7.684;2022-10-31T13:59:55;38.17;;;21.10;;
70467;SDS011;57934;51.532;7.684;2022-10-31T14:02:28;39.35;;;19.13;;
70467;SDS011;57934;51.532;7.684;2022-10-31T14:05:04;42.30;;;19.92;;
70467;SDS011;57934;51.532;7.684;2022-10-31T14:07:43;46.13;;;20.05;;
70467;SDS011;57934;51.532;7.684;2022-10-31T14:10:28;42.97;;;20.80;;
70467;SDS011;57934;51.532;7.684;2022-10-31T14:13:05;43.65;;;21.08;;
70467;SDS011;57934;51.532;7.684;2022-10-31T14:15:34;47.83;;;20.38;;
70467;SDS011;57934;51.532;7.684;2022-10-31T14:18:38;41.42;;;21.00;;
70467;SDS011;57934;51.532;7.684;2022-10-31T14:24:14;42.17;;;21.38;;
70467;SDS011;57934;51.532;7.684;2022-10-31T14:26:56;49.05;;;21.35;;
70467;SDS011;57934;51.532;7.684;2022-10-31T14:29:31;35.88;;;20.83;;
70467;SDS011;57934;51.532;7.684;2022-10-31T14:34:39;45.45;;;21.55;;
70467;SDS011;57934;51.532;7.684;2022-10-31T14:37:23;43.42;;;21.60;;
70467;SDS011;57934;51.532;7.684;2022-10-31T14:40:14;46.08;;;22.33;;
70467;SDS011;57934;51.532;7.684;2022-10-31T14:43:30;41.60;;;21.40;;
70467;SDS011;57934;51.532;7.684;2022-10-31T14:46:18;36.58;;;20.40;;
70467;SDS011;57934;51.532;7.684;2022-10-31T14:51:40;41.65;;;20.67;;
70467;SDS011;57934;51.532;7.684;2022-10-31T14:54:14;44.70;;;20.20;;
70467;SDS011;57934;51.532;7.684;2022-10-31T14:56:47;41.60;;;20.33;;
70467;SDS011;57934;51.532;7.684;2022-10-31T14:59:19;37.90;;;20.38;;
70467;SDS011;57934;51.532;7.684;2022-10-31T15:01:57;40.15;;;20.35;;
70467;SDS011;57934;51.532;7.684;2022-10-31T15:04:27;36.80;;;20.58;;
70467;SDS011;57934;51.532;7.684;2022-10-31T15:07:06;49.83;;;21.67;;
70467;SDS011;57934;51.532;7.684;2022-10-31T15:09:38;41.40;;;20.85;;
70467;SDS011;57934;51.532;7.684;2022-10-31T15:14:50;36.78;;;20.05;;
70467;SDS011;57934;51.532;7.684;2022-10-31T15:17:18;42.55;;;21.42;;
70467;SDS011;57934;51.532;7.684;2022-10-31T15:19:45;48.10;;;21.98;;
70467;SDS011;57934;51.532;7.684;2022-10-31T15:22:14;46.65;;;21.00;;
70467;SDS011;57934;51.532;7.684;2022-10-31T15:24:42;41.83;;;21.35;;
70467;SDS011;57934;51.532;7.684;2022-10-31T15:27:16;50.03;;;22.52;;
70467;SDS011;57934;51.532;7.684;2022-10-31T15:29:50;41.47;;;20.87;;
70467;SDS011;57934;51.532;7.684;2022-10-31T15:32:21;32.50;;;19.05;;
70467;SDS011;57934;51.532;7.684;2022-10-31T15:34:49;45.97;;;21.48;;
70467;SDS011;57934;51.532;7.684;2022-10-31T15:37:21;40.20;;;22.13;;
70467;SDS011;57934;51.532;7.684;2022-10-31T15:39:50;39.97;;;21.38;;
70467;SDS011;57934;51.532;7.684;2022-10-31T15:42:22;41.17;;;20.35;;
70467;SDS011;57934;51.532;7.684;2022-10-31T15:44:55;46.42;;;22.40;;
70467;SDS011;57934;51.532;7.684;2022-10-31T15:47:26;45.15;;;22.30;;
70467;SDS011;57934;51.532;7.684;2022-10-31T15:49:56;41.85;;;22.10;;
70467;SDS011;57934;51.532;7.684;2022-10-31T15:52:34;46.13;;;22.48;;
70467;SDS011;57934;51.532;7.684;2022-10-31T15:57:45;46.97;;;22.75;;
70467;SDS011;57934;51.532;7.684;2022-10-31T16:00:22;47.10;;;22.55;;
70467;SDS011;57934;51.532;7.684;2022-10-31T16:02:49;37.42;;;21.15;;
70467;SDS011;57934;51.532;7.684;2022-10-31T16:05:16;42.22;;;21.05;;
70467;SDS011;57934;51.532;7.684;2022-10-31T16:07:51;44.63;;;22.50;;
70467;SDS011;57934;51.532;7.684;2022-10-31T16:10:22;41.17;;;21.20;;
70467;SDS011;57934;51.532;7.684;2022-10-31T16:12:50;49.85;;;20.52;;
70467;SDS011;57934;51.532;7.684;2022-10-31T16:15:25;42.08;;;20.05;;
70467;SDS011;57934;51.532;7.684;2022-10-31T16:17:53;39.67;;;18.45;;
70467;SDS011;57934;51.532;7.684;2022-10-31T16:20:23;36.00;;;18.20;;
70467;SDS011;57934;51.532;7.684;2022-10-31T16:22:52;32.88;;;17.30;;
70467;SDS011;57934;51.532;7.684;2022-10-31T16:27:47;45.85;;;15.65;;
70467;SDS011;57934;51.532;7.684;2022-10-31T16:30:30;36.17;;;15.23;;
70467;SDS011;57934;51.532;7.684;2022-10-31T16:33:05;24.55;;;14.43;;
70467;SDS011;57934;51.532;7.684;2022-10-31T16:35:53;24.20;;;13.77;;
70467;SDS011;57934;51.532;7.684;2022-10-31T16:38:21;23.42;;;13.10;;
70467;SDS011;57934;51.532;7.684;2022-10-31T16:40:47;27.80;;;11.32;;
70467;SDS011;57934;51.532;7.684;2022-10-31T16:43:15;16.35;;;7.70;;
70467;SDS011;57934;51.532;7.684;2022-10-31T16:45:47;19.60;;;7.25;;
70467;SDS011;57934;51.532;7.684;2022-10-31T16:48:16;16.05;;;6.10;;
70467;SDS011;57934;51.532;7.684;2022-10-31T16:50:48;14.02;;;5.50;;
70467;SDS011;57934;51.532;7.684;2022-10-31T16:53:20;14.48;;;5.70;;
70467;SDS011;57934;51.532;7.684;2022-10-31T16:58:24;11.25;;;4.80;;
70467;SDS011;57934;51.532;7.684;2022-10-31T17:00:56;11.63;;;4.72;;
70467;SDS011;57934;51.532;7.684;2022-10-31T17:03:26;9.95;;;5.07;;
70467;SDS011;57934;51.532;7.684;2022-10-31T17:06:19;12.52;;;4.75;;